WIOO/PNK METAR and TAF weather

Enter ICAO airport designator
Station Type Date Time Source
WIOO METAR 2018/12/13 22:30 UTC NOAA

WIOO 132230Z 00000KT 6000 SCT012 24/23 Q1009


Station Type Date Time Source
WIOO Decoded METAR 2018/12/13 22:30 UTC NOAA

Pontianak / Supadio, Indonesia (WIOO) 00-09S 109-24E 3M
Dec 13, 2018 - 05:30 PM EST / 2018.12.13 2230 UTC
Wind: Calm:0
Visibility: 3 mile(s):0
Sky conditions: partly cloudy
Temperature: 75 F (24 C)
Dew Point: 73 F (23 C)
Relative Humidity: 94%
Pressure (altimeter): 29.80 in. Hg (1009 hPa)
ob: WIOO 132230Z 00000KT 6000 SCT012 24/23 Q1009
cycle: 22

Station Type Date Time Source
WIOO TAF 2014/03/26 00:51 UTC NOAA

TAF TAF WIOO 252300Z 2600/2624 10002KT 7000 SCT011
BECMG 2601/2603 08005KT 9999
TEMPO 2607/2610 15010KT 3000


Example: see airport list